createdAt,value
2023-03-08T00:01:58.653Z,45.20
2023-03-08T00:05:46.159Z,46.20
2023-03-08T00:09:33.809Z,33.20
2023-03-08T00:13:12.608Z,28.30
2023-03-08T00:16:43.084Z,27.80
2023-03-08T00:20:30.319Z,31.00
2023-03-08T00:24:19.916Z,29.10
2023-03-08T00:28:27.717Z,33.30
2023-03-08T00:32:06.711Z,27.00
2023-03-08T00:36:00.232Z,29.80
2023-03-08T00:39:50.449Z,28.70
2023-03-08T00:43:31.925Z,24.90
2023-03-08T00:47:20.043Z,29.50
2023-03-08T00:51:08.232Z,26.80
2023-03-08T00:54:46.756Z,23.20
2023-03-08T00:58:26.505Z,22.00
2023-03-08T01:02:14.070Z,19.10
2023-03-08T01:06:23.190Z,22.20
2023-03-08T01:09:50.810Z,24.00
2023-03-08T01:13:22.611Z,29.80
2023-03-08T01:17:01.025Z,30.10
2023-03-08T01:20:56.318Z,30.60
2023-03-08T01:24:47.187Z,27.60
2023-03-08T01:28:35.664Z,36.90
2023-03-08T01:32:23.097Z,35.40
2023-03-08T01:36:15.035Z,39.40
2023-03-08T01:40:02.880Z,36.80
2023-03-08T01:43:42.285Z,32.30
2023-03-08T01:47:30.991Z,32.90
2023-03-08T01:51:36.716Z,33.30
2023-03-08T01:55:17.398Z,43.10
2023-03-08T01:58:55.952Z,35.30
2023-03-08T02:02:49.288Z,38.30
2023-03-08T02:06:37.132Z,32.30
2023-03-08T02:10:25.232Z,26.30
2023-03-08T02:14:12.837Z,33.30
2023-03-08T02:18:00.355Z,32.40
2023-03-08T02:21:48.446Z,17.80
2023-03-08T02:25:28.925Z,15.10
2023-03-08T02:29:00.913Z,19.80
2023-03-08T02:32:39.783Z,19.00
2023-03-08T02:36:15.964Z,20.60
2023-03-08T02:39:57.564Z,25.50
2023-03-08T02:43:25.776Z,15.70
2023-03-08T02:47:04.240Z,17.20
2023-03-08T02:50:43.320Z,18.00
2023-03-08T02:54:19.778Z,20.20
2023-03-08T02:58:09.745Z,19.70
2023-03-08T03:01:58.154Z,16.70
2023-03-08T03:05:46.980Z,20.80
2023-03-08T03:09:31.510Z,16.10
2023-03-08T03:13:18.422Z,18.70
2023-03-08T03:17:06.036Z,18.10
2023-03-08T03:20:53.784Z,16.60
2023-03-08T03:24:41.794Z,19.90
2023-03-08T03:28:29.292Z,18.30
2023-03-08T03:32:16.897Z,18.70
2023-03-08T03:36:05.035Z,15.80
2023-03-08T03:39:52.747Z,18.60
2023-03-08T03:43:31.944Z,16.70
2023-03-08T03:47:12.614Z,15.50
2023-03-08T03:51:01.965Z,19.50
2023-03-08T03:54:43.977Z,18.40
2023-03-08T03:58:31.518Z,16.00
2023-03-08T04:02:13.144Z,19.40
2023-03-08T04:06:08.971Z,22.50
2023-03-08T04:13:36.579Z,17.40
2023-03-08T04:17:24.399Z,20.30
2023-03-08T04:21:14.701Z,14.40
2023-03-08T04:24:55.064Z,18.40
2023-03-08T04:28:41.039Z,14.90
2023-03-08T04:32:12.200Z,13.50
2023-03-08T04:36:03.231Z,16.40
2023-03-08T04:39:33.228Z,15.80
2023-03-08T04:43:10.594Z,17.90
2023-03-08T04:46:58.948Z,17.20
2023-03-08T04:50:46.791Z,15.40
2023-03-08T04:54:33.248Z,15.50
2023-03-08T04:58:17.134Z,14.00
2023-03-08T05:02:04.876Z,14.70
2023-03-08T05:05:55.576Z,13.40
2023-03-08T05:09:34.015Z,18.20
2023-03-08T05:13:21.507Z,17.20
2023-03-08T05:16:55.649Z,15.30
2023-03-08T05:20:43.486Z,16.10
2023-03-08T05:24:15.237Z,20.10
2023-03-08T05:27:50.666Z,17.80
2023-03-08T05:31:23.605Z,17.00
2023-03-08T05:34:53.337Z,14.40
2023-03-08T05:38:32.356Z,18.20
2023-03-08T05:42:19.861Z,15.80
2023-03-08T05:46:08.882Z,20.30
2023-03-08T05:49:55.867Z,18.00
2023-03-08T05:53:33.861Z,18.90
2023-03-08T05:57:14.570Z,19.20
2023-03-08T06:00:55.485Z,13.90
2023-03-08T06:04:38.074Z,17.70
2023-03-08T06:08:17.469Z,15.40
2023-03-08T06:11:51.655Z,13.30
2023-03-08T06:15:30.717Z,16.10
2023-03-08T06:19:08.884Z,17.20
2023-03-08T06:22:40.500Z,21.00
2023-03-08T06:26:28.389Z,12.30
2023-03-08T06:30:07.476Z,18.20
2023-03-08T06:33:44.227Z,18.90
2023-03-08T06:37:27.914Z,23.90
2023-03-08T06:41:01.232Z,19.30
2023-03-08T06:44:49.396Z,22.60
2023-03-08T06:48:33.295Z,23.30
2023-03-08T06:52:21.125Z,20.70
2023-03-08T06:56:03.030Z,22.20
2023-03-08T06:59:51.020Z,16.60
2023-03-08T07:03:39.793Z,74.10
2023-03-08T07:07:25.030Z,189.60
2023-03-08T07:14:54.146Z,34.10
2023-03-08T07:18:37.576Z,18.10
2023-03-08T07:22:16.405Z,18.50
2023-03-08T07:25:54.614Z,13.50
2023-03-08T07:29:42.560Z,12.80
2023-03-08T07:33:22.553Z,13.60
2023-03-08T07:37:01.952Z,13.40
2023-03-08T07:40:57.190Z,11.20
2023-03-08T07:44:38.570Z,15.90
2023-03-08T07:48:26.442Z,14.30
2023-03-08T07:52:14.321Z,10.20
2023-03-08T07:55:54.489Z,21.80
2023-03-08T07:59:35.086Z,15.40
2023-03-08T08:03:17.539Z,12.50
2023-03-08T08:06:46.299Z,10.80
2023-03-08T08:10:34.129Z,12.60
2023-03-08T08:14:21.948Z,11.20
2023-03-08T08:18:02.982Z,12.20
2023-03-08T08:21:33.683Z,12.70
2023-03-08T08:25:22.761Z,12.60
2023-03-08T08:28:59.462Z,9.30
2023-03-08T08:32:37.771Z,11.60
2023-03-08T08:36:27.548Z,14.90
2023-03-08T08:44:03.216Z,9.90
2023-03-08T08:47:48.978Z,15.30
2023-03-08T08:51:26.900Z,16.90
2023-03-08T08:55:07.443Z,13.10
2023-03-08T08:58:56.090Z,13.30
2023-03-08T09:02:43.954Z,11.50
2023-03-08T09:06:15.519Z,11.60
2023-03-08T09:09:55.553Z,10.20
2023-03-08T09:13:26.747Z,11.60
2023-03-08T09:17:00.331Z,10.20
2023-03-08T09:20:31.128Z,9.50
2023-03-08T09:29:59.495Z,6.80
2023-03-08T09:34:49.918Z,15.40
2023-03-08T09:38:17.660Z,10.90
2023-03-08T09:41:54.283Z,10.30
2023-03-08T09:45:28.474Z,13.20
2023-03-08T09:49:01.157Z,13.90
2023-03-08T09:52:34.386Z,12.20
2023-03-08T09:56:08.148Z,11.30
2023-03-08T09:59:41.843Z,14.10
2023-03-08T10:03:40.179Z,12.40
2023-03-08T10:07:24.509Z,15.70
2023-03-08T10:11:00.699Z,12.00
2023-03-08T10:14:32.359Z,13.40
2023-03-08T10:18:04.391Z,10.80
2023-03-08T10:21:35.080Z,14.70
2023-03-08T10:25:06.756Z,12.20
2023-03-08T10:28:36.086Z,10.30
2023-03-08T10:32:03.705Z,10.00
2023-03-08T10:35:39.716Z,16.80
2023-03-08T10:39:12.380Z,12.20
2023-03-08T10:42:39.735Z,12.10
2023-03-08T10:46:12.839Z,16.90
2023-03-08T10:49:39.827Z,37.00
2023-03-08T10:53:17.808Z,38.60
2023-03-08T10:56:52.276Z,47.60
2023-03-08T11:00:35.315Z,23.40
2023-03-08T11:04:04.710Z,10.60
2023-03-08T11:07:34.525Z,9.40
2023-03-08T11:14:32.447Z,11.40
2023-03-08T11:18:05.198Z,10.60
2023-03-08T11:21:41.528Z,10.10
2023-03-08T11:25:23.617Z,9.10
2023-03-08T11:29:06.202Z,10.60
2023-03-08T11:32:51.819Z,8.10
2023-03-08T11:36:28.353Z,10.60
2023-03-08T11:40:15.092Z,9.60
2023-03-08T11:43:58.639Z,9.80
2023-03-08T11:47:53.304Z,14.60
2023-03-08T11:51:28.334Z,16.20
2023-03-08T11:55:07.627Z,12.20
2023-03-08T11:58:40.306Z,14.70
2023-03-08T12:02:18.712Z,14.50
2023-03-08T12:05:51.049Z,15.90
2023-03-08T12:09:26.123Z,17.20
2023-03-08T12:12:59.060Z,19.90
2023-03-08T12:16:30.535Z,18.10
2023-03-08T12:19:58.087Z,20.10
2023-03-08T12:23:32.416Z,19.90
2023-03-08T12:27:06.921Z,19.50
2023-03-08T12:30:53.365Z,24.70
2023-03-08T12:34:31.177Z,20.40
2023-03-08T12:38:04.458Z,17.80
2023-03-08T12:41:33.661Z,18.60
2023-03-08T12:45:26.285Z,16.20
2023-03-08T12:48:55.396Z,16.60
2023-03-08T12:52:35.704Z,20.20
2023-03-08T12:56:07.223Z,15.60
2023-03-08T12:59:41.419Z,12.70
2023-03-08T13:03:23.906Z,16.60
2023-03-08T13:07:26.233Z,10.80
2023-03-08T13:11:05.372Z,10.00
2023-03-08T13:14:44.259Z,13.10
2023-03-08T13:18:19.742Z,12.40
2023-03-08T13:21:54.992Z,10.10
2023-03-08T13:25:53.279Z,12.00
2023-03-08T13:29:22.477Z,11.70
2023-03-08T13:32:51.454Z,10.80
2023-03-08T13:36:21.963Z,10.00
2023-03-08T13:39:55.118Z,14.90
2023-03-08T13:43:24.567Z,12.30
2023-03-08T13:46:55.194Z,15.20
2023-03-08T13:50:28.622Z,12.70
2023-03-08T13:53:56.501Z,14.10
2023-03-08T13:57:26.613Z,9.40
2023-03-08T14:01:03.926Z,13.00
2023-03-08T14:04:32.120Z,13.80
2023-03-08T14:08:04.856Z,13.30
2023-03-08T14:11:34.666Z,12.20
2023-03-08T14:18:32.713Z,12.10
2023-03-08T14:22:02.415Z,15.50
2023-03-08T14:25:32.767Z,16.70
2023-03-08T14:29:18.278Z,18.50
2023-03-08T14:32:59.476Z,17.00
2023-03-08T14:36:27.184Z,16.20
2023-03-08T14:39:56.938Z,12.50
2023-03-08T14:46:58.353Z,16.20
2023-03-08T14:50:27.629Z,17.80
2023-03-08T14:54:02.018Z,15.00
2023-03-08T14:57:30.662Z,15.40
2023-03-08T15:01:01.118Z,17.80
2023-03-08T15:04:28.768Z,20.70
2023-03-08T15:07:58.291Z,21.70
2023-03-08T15:11:26.225Z,22.10
2023-03-08T15:14:54.642Z,22.80
2023-03-08T15:18:23.039Z,20.00
2023-03-08T15:21:51.435Z,23.40
2023-03-08T15:25:24.795Z,22.60
2023-03-08T15:28:52.502Z,27.60
2023-03-08T15:32:19.859Z,24.10
2023-03-08T15:35:47.468Z,25.50
2023-03-08T15:39:15.545Z,24.20
2023-03-08T15:42:43.492Z,29.30
2023-03-08T15:46:13.684Z,24.40
2023-03-08T15:49:40.892Z,27.10
2023-03-08T15:53:08.410Z,22.40
2023-03-08T15:56:35.464Z,27.10
2023-03-08T16:00:04.603Z,24.40
2023-03-08T16:03:38.339Z,28.10
2023-03-08T16:07:05.615Z,27.00
2023-03-08T16:10:40.763Z,26.20
2023-03-08T16:14:07.829Z,25.30
2023-03-08T16:17:35.662Z,25.80
2023-03-08T16:21:06.734Z,29.40
2023-03-08T16:24:33.927Z,38.40
2023-03-08T16:28:01.251Z,36.40
2023-03-08T16:31:28.267Z,40.00
2023-03-08T16:34:59.153Z,45.10
2023-03-08T16:38:26.513Z,46.00
2023-03-08T16:41:53.626Z,35.90
2023-03-08T16:45:20.935Z,33.70
2023-03-08T16:48:49.881Z,29.50
2023-03-08T16:52:18.115Z,39.20
2023-03-08T16:55:45.144Z,33.00
2023-03-08T16:59:17.486Z,29.30
2023-03-08T17:02:45.490Z,24.70
2023-03-08T17:06:14.368Z,21.20
2023-03-08T17:09:42.045Z,18.80
2023-03-08T17:13:10.153Z,15.80
2023-03-08T17:16:38.313Z,20.10
2023-03-08T17:20:08.028Z,22.50
2023-03-08T17:23:36.825Z,15.70
2023-03-08T17:27:04.489Z,13.50
2023-03-08T17:30:33.355Z,22.60
2023-03-08T17:34:00.705Z,25.30
2023-03-08T17:37:28.027Z,64.50
2023-03-08T17:40:55.828Z,75.20
2023-03-08T17:44:23.588Z,66.00
2023-03-08T17:47:51.701Z,77.60
2023-03-08T17:51:20.466Z,84.70
2023-03-08T17:54:49.314Z,86.80
2023-03-08T17:58:19.018Z,90.30
2023-03-08T18:01:47.565Z,77.80
2023-03-08T18:05:15.612Z,90.60
2023-03-08T18:08:42.911Z,74.30
2023-03-08T18:12:11.776Z,53.80
2023-03-08T18:15:38.852Z,44.70
2023-03-08T18:19:07.295Z,50.10
2023-03-08T18:22:35.184Z,83.10
2023-03-08T18:26:03.610Z,78.70
2023-03-08T18:29:32.858Z,68.20
2023-03-08T18:33:00.599Z,67.30
2023-03-08T18:36:29.371Z,51.40
2023-03-08T18:39:59.084Z,51.70
2023-03-08T18:43:27.315Z,44.70
2023-03-08T18:46:54.697Z,52.20
2023-03-08T18:50:25.451Z,56.50
2023-03-08T18:53:55.089Z,57.50
2023-03-08T19:00:51.311Z,56.70
2023-03-08T19:04:19.474Z,58.50
2023-03-08T19:07:47.764Z,74.20
2023-03-08T19:11:17.904Z,80.00
2023-03-08T19:14:46.602Z,76.40
2023-03-08T19:18:14.471Z,105.20
2023-03-08T19:21:43.846Z,104.20
2023-03-08T19:25:12.164Z,108.80
2023-03-08T19:28:39.837Z,107.30
2023-03-08T19:32:09.309Z,84.40
2023-03-08T19:35:39.308Z,86.70
2023-03-08T19:39:08.852Z,113.60
2023-03-08T19:46:02.626Z,123.70
2023-03-08T19:49:32.342Z,107.00
2023-03-08T19:52:59.554Z,93.80
2023-03-08T19:56:28.504Z,94.90
2023-03-08T19:59:57.726Z,82.50
2023-03-08T20:03:25.710Z,100.00
2023-03-08T20:06:54.278Z,88.60
2023-03-08T20:10:23.140Z,80.40
2023-03-08T20:13:50.719Z,72.80
2023-03-08T20:17:18.228Z,69.60
2023-03-08T20:20:46.073Z,64.30
2023-03-08T20:24:14.530Z,60.90
2023-03-08T20:27:41.912Z,72.90
2023-03-08T20:31:12.793Z,63.70
2023-03-08T20:34:40.183Z,66.40
2023-03-08T20:38:07.206Z,72.70
2023-03-08T20:41:34.279Z,82.60
2023-03-08T20:45:01.275Z,78.30
2023-03-08T20:48:29.361Z,60.80
2023-03-08T20:51:56.362Z,66.20
2023-03-08T20:55:23.467Z,82.50
2023-03-08T20:58:50.661Z,60.30
2023-03-08T21:02:17.970Z,61.50
2023-03-08T21:05:45.165Z,50.30
2023-03-08T21:09:12.566Z,60.40
2023-03-08T21:12:39.985Z,56.30
2023-03-08T21:16:09.936Z,60.90
2023-03-08T21:19:37.701Z,58.20
2023-03-08T21:23:04.750Z,68.40
2023-03-08T21:26:33.063Z,60.00
2023-03-08T21:30:00.521Z,62.30
2023-03-08T21:33:28.137Z,70.40
2023-03-08T21:36:55.135Z,66.40
2023-03-08T21:40:22.608Z,71.50
2023-03-08T21:43:50.204Z,74.20
2023-03-08T21:47:17.247Z,77.80
2023-03-08T21:50:44.262Z,83.00
2023-03-08T21:54:11.357Z,91.10
2023-03-08T21:57:38.481Z,96.50
2023-03-08T22:01:06.410Z,75.50
2023-03-08T22:04:33.555Z,83.80
2023-03-08T22:08:00.593Z,86.60
2023-03-08T22:11:28.639Z,88.20
2023-03-08T22:14:55.861Z,87.90
2023-03-08T22:18:22.837Z,84.80
2023-03-08T22:21:49.948Z,80.70
2023-03-08T22:25:16.989Z,88.00
2023-03-08T22:28:44.112Z,73.70
2023-03-08T22:32:11.653Z,90.20
2023-03-08T22:35:38.693Z,92.00
2023-03-08T22:39:05.947Z,95.80
2023-03-08T22:42:33.912Z,109.20
2023-03-08T22:46:11.076Z,96.90
2023-03-08T22:49:38.283Z,108.50
2023-03-08T22:53:05.248Z,99.20
2023-03-08T22:56:33.462Z,105.20
2023-03-08T23:00:00.779Z,105.80
2023-03-08T23:03:28.206Z,111.20
2023-03-08T23:06:55.329Z,97.40
2023-03-08T23:10:22.753Z,99.00
2023-03-08T23:13:49.878Z,95.00
2023-03-08T23:17:16.917Z,89.70
2023-03-08T23:20:44.014Z,89.60
2023-03-08T23:24:11.836Z,90.90
2023-03-08T23:27:39.005Z,88.60
2023-03-08T23:31:11.658Z,91.40
2023-03-08T23:34:38.665Z,80.70
2023-03-08T23:38:05.722Z,81.10
2023-03-08T23:41:33.604Z,74.50
2023-03-08T23:45:00.596Z,75.00
2023-03-08T23:48:27.755Z,76.50
2023-03-08T23:51:54.750Z,70.00
2023-03-08T23:55:21.792Z,68.00
2023-03-08T23:58:51.127Z,72.70
